sensor_id;sensor_type;location;lat;lon;timestamp;P1;durP1;ratioP1;P2;durP2;ratioP2
77123;SDS011;66079;47.646;19.130;2023-05-29T00:02:14;5.97;;;3.33;;
77123;SDS011;66079;47.646;19.130;2023-05-29T00:05:17;6.03;;;3.35;;
77123;SDS011;66079;47.646;19.130;2023-05-29T00:08:19;8.73;;;4.03;;
77123;SDS011;66079;47.646;19.130;2023-05-29T00:11:22;6.97;;;3.57;;
77123;SDS011;66079;47.646;19.130;2023-05-29T00:14:25;7.82;;;4.05;;
77123;SDS011;66079;47.646;19.130;2023-05-29T00:17:28;7.40;;;3.33;;
77123;SDS011;66079;47.646;19.130;2023-05-29T00:20:31;7.55;;;3.60;;
77123;SDS011;66079;47.646;19.130;2023-05-29T00:23:36;6.40;;;3.53;;
77123;SDS011;66079;47.646;19.130;2023-05-29T00:26:39;8.77;;;3.90;;
77123;SDS011;66079;47.646;19.130;2023-05-29T00:29:41;5.65;;;3.60;;
77123;SDS011;66079;47.646;19.130;2023-05-29T00:32:44;6.35;;;3.65;;
77123;SDS011;66079;47.646;19.130;2023-05-29T00:35:49;6.00;;;3.42;;
77123;SDS011;66079;47.646;19.130;2023-05-29T00:38:51;7.40;;;4.10;;
77123;SDS011;66079;47.646;19.130;2023-05-29T00:41:55;6.97;;;3.80;;
77123;SDS011;66079;47.646;19.130;2023-05-29T00:44:59;6.47;;;3.80;;
77123;SDS011;66079;47.646;19.130;2023-05-29T00:48:04;9.35;;;4.10;;
77123;SDS011;66079;47.646;19.130;2023-05-29T00:51:10;8.35;;;4.47;;
77123;SDS011;66079;47.646;19.130;2023-05-29T00:54:14;6.45;;;4.00;;
77123;SDS011;66079;47.646;19.130;2023-05-29T00:57:23;8.20;;;3.90;;
77123;SDS011;66079;47.646;19.130;2023-05-29T01:00:26;8.00;;;4.15;;
77123;SDS011;66079;47.646;19.130;2023-05-29T01:03:28;7.03;;;3.70;;
77123;SDS011;66079;47.646;19.130;2023-05-29T01:06:35;7.88;;;3.80;;
77123;SDS011;66079;47.646;19.130;2023-05-29T01:09:38;8.68;;;3.80;;
77123;SDS011;66079;47.646;19.130;2023-05-29T01:15:58;6.97;;;3.75;;
77123;SDS011;66079;47.646;19.130;2023-05-29T01:26:09;7.03;;;3.78;;
77123;SDS011;66079;47.646;19.130;2023-05-29T01:29:22;7.47;;;3.67;;
77123;SDS011;66079;47.646;19.130;2023-05-29T01:32:28;9.15;;;4.20;;
77123;SDS011;66079;47.646;19.130;2023-05-29T01:35:32;7.40;;;4.05;;
77123;SDS011;66079;47.646;19.130;2023-05-29T01:38:35;8.52;;;4.13;;
77123;SDS011;66079;47.646;19.130;2023-05-29T01:41:37;6.03;;;3.78;;
77123;SDS011;66079;47.646;19.130;2023-05-29T01:44:41;8.90;;;3.87;;
77123;SDS011;66079;47.646;19.130;2023-05-29T01:47:44;6.65;;;3.70;;
77123;SDS011;66079;47.646;19.130;2023-05-29T01:50:48;6.32;;;3.42;;
77123;SDS011;66079;47.646;19.130;2023-05-29T01:53:51;6.13;;;3.58;;
77123;SDS011;66079;47.646;19.130;2023-05-29T01:56:54;5.00;;;3.25;;
77123;SDS011;66079;47.646;19.130;2023-05-29T01:59:57;6.77;;;3.80;;
77123;SDS011;66079;47.646;19.130;2023-05-29T02:03:00;6.78;;;3.75;;
77123;SDS011;66079;47.646;19.130;2023-05-29T02:06:03;7.47;;;4.00;;
77123;SDS011;66079;47.646;19.130;2023-05-29T02:09:05;9.68;;;4.13;;
77123;SDS011;66079;47.646;19.130;2023-05-29T02:12:08;5.40;;;3.60;;
77123;SDS011;66079;47.646;19.130;2023-05-29T02:15:11;8.00;;;4.00;;
77123;SDS011;66079;47.646;19.130;2023-05-29T02:18:14;6.28;;;3.65;;
77123;SDS011;66079;47.646;19.130;2023-05-29T02:21:19;6.95;;;3.95;;
77123;SDS011;66079;47.646;19.130;2023-05-29T02:24:22;7.72;;;3.72;;
77123;SDS011;66079;47.646;19.130;2023-05-29T02:27:25;7.85;;;4.03;;
77123;SDS011;66079;47.646;19.130;2023-05-29T02:30:28;8.40;;;3.80;;
77123;SDS011;66079;47.646;19.130;2023-05-29T02:33:30;8.23;;;3.88;;
77123;SDS011;66079;47.646;19.130;2023-05-29T02:36:33;8.00;;;4.28;;
77123;SDS011;66079;47.646;19.130;2023-05-29T02:39:39;6.93;;;3.88;;
77123;SDS011;66079;47.646;19.130;2023-05-29T02:42:42;6.85;;;3.80;;
77123;SDS011;66079;47.646;19.130;2023-05-29T02:45:44;6.20;;;3.70;;
77123;SDS011;66079;47.646;19.130;2023-05-29T02:48:47;8.43;;;4.25;;
77123;SDS011;66079;47.646;19.130;2023-05-29T02:51:50;7.35;;;4.00;;
77123;SDS011;66079;47.646;19.130;2023-05-29T02:54:58;6.88;;;3.78;;
77123;SDS011;66079;47.646;19.130;2023-05-29T02:58:01;7.80;;;3.88;;
77123;SDS011;66079;47.646;19.130;2023-05-29T03:01:04;5.73;;;3.50;;
77123;SDS011;66079;47.646;19.130;2023-05-29T03:04:07;5.65;;;3.70;;
77123;SDS011;66079;47.646;19.130;2023-05-29T03:07:09;5.93;;;3.85;;
77123;SDS011;66079;47.646;19.130;2023-05-29T03:10:12;11.02;;;4.40;;
77123;SDS011;66079;47.646;19.130;2023-05-29T03:13:19;9.68;;;4.10;;
77123;SDS011;66079;47.646;19.130;2023-05-29T03:16:29;5.67;;;3.67;;
77123;SDS011;66079;47.646;19.130;2023-05-29T03:19:32;12.23;;;3.95;;
77123;SDS011;66079;47.646;19.130;2023-05-29T03:22:35;7.72;;;3.95;;
77123;SDS011;66079;47.646;19.130;2023-05-29T03:25:38;9.90;;;4.40;;
77123;SDS011;66079;47.646;19.130;2023-05-29T03:28:41;7.90;;;3.70;;
77123;SDS011;66079;47.646;19.130;2023-05-29T03:31:44;6.70;;;3.97;;
77123;SDS011;66079;47.646;19.130;2023-05-29T03:34:54;7.47;;;3.67;;
77123;SDS011;66079;47.646;19.130;2023-05-29T03:37:58;7.95;;;3.90;;
77123;SDS011;66079;47.646;19.130;2023-05-29T03:41:00;7.07;;;3.55;;
77123;SDS011;66079;47.646;19.130;2023-05-29T03:44:03;7.78;;;4.20;;
77123;SDS011;66079;47.646;19.130;2023-05-29T03:47:06;8.47;;;4.20;;
77123;SDS011;66079;47.646;19.130;2023-05-29T03:50:11;8.10;;;4.00;;
77123;SDS011;66079;47.646;19.130;2023-05-29T03:53:18;9.63;;;4.10;;
77123;SDS011;66079;47.646;19.130;2023-05-29T03:56:21;5.95;;;3.70;;
77123;SDS011;66079;47.646;19.130;2023-05-29T03:59:24;7.78;;;4.15;;
77123;SDS011;66079;47.646;19.130;2023-05-29T04:02:27;9.90;;;4.20;;
77123;SDS011;66079;47.646;19.130;2023-05-29T04:05:31;7.93;;;4.15;;
77123;SDS011;66079;47.646;19.130;2023-05-29T04:08:34;7.60;;;4.00;;
77123;SDS011;66079;47.646;19.130;2023-05-29T04:11:37;5.60;;;3.60;;
77123;SDS011;66079;47.646;19.130;2023-05-29T04:14:41;6.55;;;3.90;;
77123;SDS011;66079;47.646;19.130;2023-05-29T04:17:44;6.97;;;3.77;;
77123;SDS011;66079;47.646;19.130;2023-05-29T04:20:46;9.93;;;4.07;;
77123;SDS011;66079;47.646;19.130;2023-05-29T04:23:49;8.82;;;3.65;;
77123;SDS011;66079;47.646;19.130;2023-05-29T04:26:52;8.43;;;3.55;;
77123;SDS011;66079;47.646;19.130;2023-05-29T04:29:55;7.45;;;3.75;;
77123;SDS011;66079;47.646;19.130;2023-05-29T04:32:58;6.43;;;3.43;;
77123;SDS011;66079;47.646;19.130;2023-05-29T04:36:02;5.55;;;3.63;;
77123;SDS011;66079;47.646;19.130;2023-05-29T04:39:06;5.95;;;3.40;;
77123;SDS011;66079;47.646;19.130;2023-05-29T04:42:10;6.90;;;3.63;;
77123;SDS011;66079;47.646;19.130;2023-05-29T04:45:13;8.98;;;3.97;;
77123;SDS011;66079;47.646;19.130;2023-05-29T04:48:16;6.90;;;3.47;;
77123;SDS011;66079;47.646;19.130;2023-05-29T04:51:19;6.72;;;3.50;;
77123;SDS011;66079;47.646;19.130;2023-05-29T04:54:23;5.63;;;3.60;;
77123;SDS011;66079;47.646;19.130;2023-05-29T04:57:29;6.20;;;3.30;;
77123;SDS011;66079;47.646;19.130;2023-05-29T05:00:31;5.30;;;3.38;;
77123;SDS011;66079;47.646;19.130;2023-05-29T05:03:34;6.37;;;3.60;;
77123;SDS011;66079;47.646;19.130;2023-05-29T05:06:37;6.53;;;3.50;;
77123;SDS011;66079;47.646;19.130;2023-05-29T05:09:41;6.80;;;3.42;;
77123;SDS011;66079;47.646;19.130;2023-05-29T05:12:51;5.75;;;3.25;;
77123;SDS011;66079;47.646;19.130;2023-05-29T05:15:55;6.35;;;3.80;;
77123;SDS011;66079;47.646;19.130;2023-05-29T05:18:58;8.13;;;3.63;;
77123;SDS011;66079;47.646;19.130;2023-05-29T05:22:00;6.80;;;3.80;;
77123;SDS011;66079;47.646;19.130;2023-05-29T05:25:03;7.80;;;3.72;;
77123;SDS011;66079;47.646;19.130;2023-05-29T05:28:07;5.43;;;3.40;;
77123;SDS011;66079;47.646;19.130;2023-05-29T05:31:10;6.38;;;3.60;;
77123;SDS011;66079;47.646;19.130;2023-05-29T05:34:13;7.77;;;3.70;;
77123;SDS011;66079;47.646;19.130;2023-05-29T05:37:18;9.77;;;4.55;;
77123;SDS011;66079;47.646;19.130;2023-05-29T05:40:21;6.13;;;3.33;;
77123;SDS011;66079;47.646;19.130;2023-05-29T05:43:30;7.18;;;3.67;;
77123;SDS011;66079;47.646;19.130;2023-05-29T05:47:11;7.88;;;3.60;;
77123;SDS011;66079;47.646;19.130;2023-05-29T05:50:14;11.40;;;3.73;;
77123;SDS011;66079;47.646;19.130;2023-05-29T05:53:19;6.57;;;3.30;;
77123;SDS011;66079;47.646;19.130;2023-05-29T05:56:23;6.57;;;3.80;;
77123;SDS011;66079;47.646;19.130;2023-05-29T05:59:25;5.10;;;3.10;;
77123;SDS011;66079;47.646;19.130;2023-05-29T06:02:28;7.15;;;3.58;;
77123;SDS011;66079;47.646;19.130;2023-05-29T06:05:31;7.30;;;3.53;;
77123;SDS011;66079;47.646;19.130;2023-05-29T06:08:34;6.35;;;2.80;;
77123;SDS011;66079;47.646;19.130;2023-05-29T06:11:36;6.07;;;3.08;;
77123;SDS011;66079;47.646;19.130;2023-05-29T06:14:39;5.38;;;3.20;;
77123;SDS011;66079;47.646;19.130;2023-05-29T06:17:42;7.47;;;3.42;;
77123;SDS011;66079;47.646;19.130;2023-05-29T06:20:45;7.90;;;3.40;;
77123;SDS011;66079;47.646;19.130;2023-05-29T06:23:48;5.00;;;3.00;;
77123;SDS011;66079;47.646;19.130;2023-05-29T06:26:50;6.13;;;3.20;;
77123;SDS011;66079;47.646;19.130;2023-05-29T06:29:54;8.75;;;4.00;;
77123;SDS011;66079;47.646;19.130;2023-05-29T06:32:56;6.70;;;3.33;;
77123;SDS011;66079;47.646;19.130;2023-05-29T06:36:04;7.53;;;3.63;;
77123;SDS011;66079;47.646;19.130;2023-05-29T06:39:09;7.07;;;3.33;;
77123;SDS011;66079;47.646;19.130;2023-05-29T06:42:12;6.18;;;3.30;;
77123;SDS011;66079;47.646;19.130;2023-05-29T06:45:17;7.55;;;3.55;;
77123;SDS011;66079;47.646;19.130;2023-05-29T06:48:20;7.57;;;3.55;;
77123;SDS011;66079;47.646;19.130;2023-05-29T06:51:23;7.03;;;3.50;;
77123;SDS011;66079;47.646;19.130;2023-05-29T06:54:29;6.63;;;3.28;;
77123;SDS011;66079;47.646;19.130;2023-05-29T06:57:32;6.22;;;3.35;;
77123;SDS011;66079;47.646;19.130;2023-05-29T07:00:34;5.70;;;3.25;;
77123;SDS011;66079;47.646;19.130;2023-05-29T07:03:55;5.82;;;3.53;;
77123;SDS011;66079;47.646;19.130;2023-05-29T07:06:58;5.73;;;3.43;;
77123;SDS011;66079;47.646;19.130;2023-05-29T07:10:01;6.80;;;3.40;;
77123;SDS011;66079;47.646;19.130;2023-05-29T07:13:04;6.50;;;3.58;;
77123;SDS011;66079;47.646;19.130;2023-05-29T07:16:08;7.55;;;3.42;;
77123;SDS011;66079;47.646;19.130;2023-05-29T07:19:28;6.55;;;3.38;;
77123;SDS011;66079;47.646;19.130;2023-05-29T07:22:31;5.27;;;3.20;;
77123;SDS011;66079;47.646;19.130;2023-05-29T07:25:34;6.00;;;3.50;;
77123;SDS011;66079;47.646;19.130;2023-05-29T07:28:37;6.25;;;3.28;;
77123;SDS011;66079;47.646;19.130;2023-05-29T07:31:40;5.88;;;3.53;;
77123;SDS011;66079;47.646;19.130;2023-05-29T07:34:43;5.85;;;3.38;;
77123;SDS011;66079;47.646;19.130;2023-05-29T07:37:49;5.17;;;3.17;;
77123;SDS011;66079;47.646;19.130;2023-05-29T07:40:54;5.25;;;3.30;;
77123;SDS011;66079;47.646;19.130;2023-05-29T07:44:08;5.13;;;3.13;;
77123;SDS011;66079;47.646;19.130;2023-05-29T07:47:11;8.18;;;3.42;;
77123;SDS011;66079;47.646;19.130;2023-05-29T07:50:18;4.93;;;3.30;;
77123;SDS011;66079;47.646;19.130;2023-05-29T07:53:21;5.83;;;3.43;;
77123;SDS011;66079;47.646;19.130;2023-05-29T07:56:25;4.90;;;3.50;;
77123;SDS011;66079;47.646;19.130;2023-05-29T07:59:29;6.97;;;3.63;;
77123;SDS011;66079;47.646;19.130;2023-05-29T08:02:34;5.25;;;3.50;;
77123;SDS011;66079;47.646;19.130;2023-05-29T08:05:57;6.95;;;3.47;;
77123;SDS011;66079;47.646;19.130;2023-05-29T08:09:02;4.23;;;3.10;;
77123;SDS011;66079;47.646;19.130;2023-05-29T08:12:05;8.15;;;3.45;;
77123;SDS011;66079;47.646;19.130;2023-05-29T08:15:08;7.65;;;3.50;;
77123;SDS011;66079;47.646;19.130;2023-05-29T08:18:12;7.68;;;3.70;;
77123;SDS011;66079;47.646;19.130;2023-05-29T08:21:15;4.90;;;3.55;;
77123;SDS011;66079;47.646;19.130;2023-05-29T08:24:17;8.27;;;3.57;;
77123;SDS011;66079;47.646;19.130;2023-05-29T08:27:20;5.07;;;3.17;;
77123;SDS011;66079;47.646;19.130;2023-05-29T08:30:23;5.78;;;3.47;;
77123;SDS011;66079;47.646;19.130;2023-05-29T08:33:25;5.18;;;3.30;;
77123;SDS011;66079;47.646;19.130;2023-05-29T08:36:28;7.10;;;3.17;;
77123;SDS011;66079;47.646;19.130;2023-05-29T08:39:31;7.33;;;3.50;;
77123;SDS011;66079;47.646;19.130;2023-05-29T08:42:34;6.70;;;3.60;;
77123;SDS011;66079;47.646;19.130;2023-05-29T08:45:42;5.72;;;3.50;;
77123;SDS011;66079;47.646;19.130;2023-05-29T08:48:47;5.88;;;3.38;;
77123;SDS011;66079;47.646;19.130;2023-05-29T08:52:02;5.90;;;3.50;;
77123;SDS011;66079;47.646;19.130;2023-05-29T08:55:12;4.90;;;3.70;;
77123;SDS011;66079;47.646;19.130;2023-05-29T08:58:21;5.00;;;3.63;;
77123;SDS011;66079;47.646;19.130;2023-05-29T09:01:24;6.70;;;3.85;;
77123;SDS011;66079;47.646;19.130;2023-05-29T09:04:28;5.45;;;3.63;;
77123;SDS011;66079;47.646;19.130;2023-05-29T09:07:33;5.95;;;3.70;;
77123;SDS011;66079;47.646;19.130;2023-05-29T09:10:36;6.43;;;3.80;;
77123;SDS011;66079;47.646;19.130;2023-05-29T09:13:40;6.82;;;3.65;;
77123;SDS011;66079;47.646;19.130;2023-05-29T09:16:42;7.57;;;3.85;;
77123;SDS011;66079;47.646;19.130;2023-05-29T09:19:45;6.07;;;3.60;;
77123;SDS011;66079;47.646;19.130;2023-05-29T09:26:01;6.97;;;4.20;;
77123;SDS011;66079;47.646;19.130;2023-05-29T09:29:05;6.40;;;4.00;;
77123;SDS011;66079;47.646;19.130;2023-05-29T09:32:08;5.47;;;3.65;;
77123;SDS011;66079;47.646;19.130;2023-05-29T09:35:14;7.05;;;4.10;;
77123;SDS011;66079;47.646;19.130;2023-05-29T09:38:21;5.97;;;3.58;;
77123;SDS011;66079;47.646;19.130;2023-05-29T09:41:27;5.27;;;3.80;;
77123;SDS011;66079;47.646;19.130;2023-05-29T09:44:29;8.45;;;4.30;;
77123;SDS011;66079;47.646;19.130;2023-05-29T09:47:33;8.43;;;4.00;;
77123;SDS011;66079;47.646;19.130;2023-05-29T09:50:36;5.88;;;3.60;;
77123;SDS011;66079;47.646;19.130;2023-05-29T09:53:40;7.90;;;3.92;;
77123;SDS011;66079;47.646;19.130;2023-05-29T09:56:45;7.00;;;4.00;;
77123;SDS011;66079;47.646;19.130;2023-05-29T09:59:48;6.60;;;3.72;;
77123;SDS011;66079;47.646;19.130;2023-05-29T10:02:56;6.05;;;4.07;;
77123;SDS011;66079;47.646;19.130;2023-05-29T10:05:59;6.18;;;3.72;;
77123;SDS011;66079;47.646;19.130;2023-05-29T10:09:02;7.75;;;4.30;;
77123;SDS011;66079;47.646;19.130;2023-05-29T10:12:08;5.20;;;4.00;;
77123;SDS011;66079;47.646;19.130;2023-05-29T10:15:14;6.15;;;4.30;;
77123;SDS011;66079;47.646;19.130;2023-05-29T10:18:21;5.63;;;4.10;;
77123;SDS011;66079;47.646;19.130;2023-05-29T10:21:26;5.60;;;3.90;;
77123;SDS011;66079;47.646;19.130;2023-05-29T10:24:31;7.82;;;4.05;;
77123;SDS011;66079;47.646;19.130;2023-05-29T10:27:34;11.70;;;4.40;;
77123;SDS011;66079;47.646;19.130;2023-05-29T10:34:29;8.95;;;4.20;;
77123;SDS011;66079;47.646;19.130;2023-05-29T10:37:44;7.38;;;4.22;;
77123;SDS011;66079;47.646;19.130;2023-05-29T10:40:51;7.35;;;4.00;;
77123;SDS011;66079;47.646;19.130;2023-05-29T10:43:55;6.90;;;4.17;;
77123;SDS011;66079;47.646;19.130;2023-05-29T10:47:05;7.05;;;3.67;;
77123;SDS011;66079;47.646;19.130;2023-05-29T10:50:08;8.27;;;4.25;;
77123;SDS011;66079;47.646;19.130;2023-05-29T10:53:15;5.50;;;4.03;;
77123;SDS011;66079;47.646;19.130;2023-05-29T10:56:23;5.68;;;3.90;;
77123;SDS011;66079;47.646;19.130;2023-05-29T10:59:29;6.03;;;3.67;;
77123;SDS011;66079;47.646;19.130;2023-05-29T11:02:38;8.18;;;4.20;;
77123;SDS011;66079;47.646;19.130;2023-05-29T11:05:58;7.50;;;4.25;;
77123;SDS011;66079;47.646;19.130;2023-05-29T11:09:02;6.95;;;4.35;;
77123;SDS011;66079;47.646;19.130;2023-05-29T11:12:14;6.18;;;4.10;;
77123;SDS011;66079;47.646;19.130;2023-05-29T11:15:38;5.03;;;3.70;;
77123;SDS011;66079;47.646;19.130;2023-05-29T11:18:44;7.30;;;3.83;;
77123;SDS011;66079;47.646;19.130;2023-05-29T11:24:59;7.05;;;4.10;;
77123;SDS011;66079;47.646;19.130;2023-05-29T11:28:04;7.90;;;3.90;;
77123;SDS011;66079;47.646;19.130;2023-05-29T11:31:11;7.57;;;3.80;;
77123;SDS011;66079;47.646;19.130;2023-05-29T11:34:14;7.50;;;3.97;;
77123;SDS011;66079;47.646;19.130;2023-05-29T11:37:17;8.05;;;4.18;;
77123;SDS011;66079;47.646;19.130;2023-05-29T11:40:20;10.07;;;4.25;;
77123;SDS011;66079;47.646;19.130;2023-05-29T11:43:24;7.35;;;4.13;;
77123;SDS011;66079;47.646;19.130;2023-05-29T11:46:27;9.30;;;4.47;;
77123;SDS011;66079;47.646;19.130;2023-05-29T11:49:36;6.93;;;4.03;;
77123;SDS011;66079;47.646;19.130;2023-05-29T11:52:45;6.90;;;4.00;;
77123;SDS011;66079;47.646;19.130;2023-05-29T11:55:48;7.50;;;4.10;;
77123;SDS011;66079;47.646;19.130;2023-05-29T11:58:54;6.93;;;4.55;;
77123;SDS011;66079;47.646;19.130;2023-05-29T12:01:59;7.17;;;4.37;;
77123;SDS011;66079;47.646;19.130;2023-05-29T12:05:04;7.70;;;4.10;;
77123;SDS011;66079;47.646;19.130;2023-05-29T12:08:09;6.82;;;4.40;;
77123;SDS011;66079;47.646;19.130;2023-05-29T12:11:12;8.25;;;4.57;;
77123;SDS011;66079;47.646;19.130;2023-05-29T12:14:14;7.43;;;4.22;;
77123;SDS011;66079;47.646;19.130;2023-05-29T12:17:18;6.07;;;4.37;;
77123;SDS011;66079;47.646;19.130;2023-05-29T12:20:22;7.60;;;4.40;;
77123;SDS011;66079;47.646;19.130;2023-05-29T12:23:28;6.18;;;4.43;;
77123;SDS011;66079;47.646;19.130;2023-05-29T12:26:32;7.20;;;4.18;;
77123;SDS011;66079;47.646;19.130;2023-05-29T12:29:35;6.60;;;4.65;;
77123;SDS011;66079;47.646;19.130;2023-05-29T12:32:38;7.47;;;4.50;;
77123;SDS011;66079;47.646;19.130;2023-05-29T12:35:45;5.35;;;4.30;;
77123;SDS011;66079;47.646;19.130;2023-05-29T12:38:49;6.93;;;4.50;;
77123;SDS011;66079;47.646;19.130;2023-05-29T12:41:53;8.52;;;4.57;;
77123;SDS011;66079;47.646;19.130;2023-05-29T12:44:56;5.45;;;4.07;;
77123;SDS011;66079;47.646;19.130;2023-05-29T12:48:03;5.87;;;4.70;;
77123;SDS011;66079;47.646;19.130;2023-05-29T12:51:09;9.27;;;4.45;;
77123;SDS011;66079;47.646;19.130;2023-05-29T12:54:12;6.63;;;4.40;;
77123;SDS011;66079;47.646;19.130;2023-05-29T12:57:15;7.78;;;4.57;;
77123;SDS011;66079;47.646;19.130;2023-05-29T13:00:18;8.57;;;5.05;;
77123;SDS011;66079;47.646;19.130;2023-05-29T13:03:22;8.63;;;4.43;;
77123;SDS011;66079;47.646;19.130;2023-05-29T13:06:28;6.20;;;4.68;;
77123;SDS011;66079;47.646;19.130;2023-05-29T13:09:30;6.75;;;4.47;;
77123;SDS011;66079;47.646;19.130;2023-05-29T13:12:34;6.45;;;5.00;;
77123;SDS011;66079;47.646;19.130;2023-05-29T13:15:37;5.90;;;4.30;;
77123;SDS011;66079;47.646;19.130;2023-05-29T13:18:42;5.47;;;4.33;;
77123;SDS011;66079;47.646;19.130;2023-05-29T13:21:44;7.10;;;4.50;;
77123;SDS011;66079;47.646;19.130;2023-05-29T13:24:50;5.00;;;4.50;;
77123;SDS011;66079;47.646;19.130;2023-05-29T13:27:53;8.48;;;4.63;;
77123;SDS011;66079;47.646;19.130;2023-05-29T13:30:55;9.63;;;4.85;;
77123;SDS011;66079;47.646;19.130;2023-05-29T13:33:58;8.10;;;4.17;;
77123;SDS011;66079;47.646;19.130;2023-05-29T13:37:00;6.55;;;4.40;;
77123;SDS011;66079;47.646;19.130;2023-05-29T13:40:04;9.57;;;4.22;;
77123;SDS011;66079;47.646;19.130;2023-05-29T13:43:08;6.63;;;4.47;;
77123;SDS011;66079;47.646;19.130;2023-05-29T13:46:11;6.85;;;4.50;;
77123;SDS011;66079;47.646;19.130;2023-05-29T13:49:14;5.70;;;4.17;;
77123;SDS011;66079;47.646;19.130;2023-05-29T13:52:17;8.48;;;4.95;;
77123;SDS011;66079;47.646;19.130;2023-05-29T13:55:20;7.88;;;4.63;;
77123;SDS011;66079;47.646;19.130;2023-05-29T13:58:23;6.03;;;4.78;;
77123;SDS011;66079;47.646;19.130;2023-05-29T14:01:25;8.40;;;4.50;;
77123;SDS011;66079;47.646;19.130;2023-05-29T14:04:30;8.27;;;4.90;;
77123;SDS011;66079;47.646;19.130;2023-05-29T14:07:34;6.05;;;4.57;;
77123;SDS011;66079;47.646;19.130;2023-05-29T14:10:36;7.82;;;4.75;;
77123;SDS011;66079;47.646;19.130;2023-05-29T14:13:39;8.40;;;4.60;;
77123;SDS011;66079;47.646;19.130;2023-05-29T14:16:41;7.93;;;5.20;;
77123;SDS011;66079;47.646;19.130;2023-05-29T14:19:45;8.23;;;5.53;;
77123;SDS011;66079;47.646;19.130;2023-05-29T14:22:49;8.50;;;5.70;;
77123;SDS011;66079;47.646;19.130;2023-05-29T14:25:52;7.85;;;5.32;;
77123;SDS011;66079;47.646;19.130;2023-05-29T14:28:55;7.28;;;5.43;;
77123;SDS011;66079;47.646;19.130;2023-05-29T14:32:14;5.85;;;4.88;;
77123;SDS011;66079;47.646;19.130;2023-05-29T14:35:16;5.83;;;5.10;;
77123;SDS011;66079;47.646;19.130;2023-05-29T14:38:19;7.70;;;5.10;;
77123;SDS011;66079;47.646;19.130;2023-05-29T14:41:22;6.65;;;5.32;;
77123;SDS011;66079;47.646;19.130;2023-05-29T14:44:26;5.90;;;5.00;;
77123;SDS011;66079;47.646;19.130;2023-05-29T14:47:29;7.90;;;5.00;;
77123;SDS011;66079;47.646;19.130;2023-05-29T14:50:31;7.10;;;5.00;;
77123;SDS011;66079;47.646;19.130;2023-05-29T14:53:35;10.10;;;5.28;;
77123;SDS011;66079;47.646;19.130;2023-05-29T14:56:37;7.72;;;5.22;;
77123;SDS011;66079;47.646;19.130;2023-05-29T14:59:40;8.60;;;5.13;;
77123;SDS011;66079;47.646;19.130;2023-05-29T15:02:42;8.93;;;5.30;;
77123;SDS011;66079;47.646;19.130;2023-05-29T15:05:45;6.43;;;5.37;;
77123;SDS011;66079;47.646;19.130;2023-05-29T15:08:48;9.05;;;5.03;;
77123;SDS011;66079;47.646;19.130;2023-05-29T15:11:53;8.05;;;5.32;;
77123;SDS011;66079;47.646;19.130;2023-05-29T15:14:55;7.82;;;5.25;;
77123;SDS011;66079;47.646;19.130;2023-05-29T15:17:58;7.10;;;4.95;;
77123;SDS011;66079;47.646;19.130;2023-05-29T15:21:01;7.70;;;5.70;;
77123;SDS011;66079;47.646;19.130;2023-05-29T15:24:05;7.95;;;5.53;;
77123;SDS011;66079;47.646;19.130;2023-05-29T15:27:08;9.20;;;5.53;;
77123;SDS011;66079;47.646;19.130;2023-05-29T15:30:14;9.73;;;5.80;;
77123;SDS011;66079;47.646;19.130;2023-05-29T15:33:18;8.07;;;5.95;;
77123;SDS011;66079;47.646;19.130;2023-05-29T15:36:21;7.23;;;5.07;;
77123;SDS011;66079;47.646;19.130;2023-05-29T15:39:23;9.15;;;5.32;;
77123;SDS011;66079;47.646;19.130;2023-05-29T15:42:28;8.88;;;5.20;;
77123;SDS011;66079;47.646;19.130;2023-05-29T15:45:30;7.60;;;5.25;;
77123;SDS011;66079;47.646;19.130;2023-05-29T15:48:33;7.60;;;5.18;;
77123;SDS011;66079;47.646;19.130;2023-05-29T15:51:35;7.17;;;5.13;;
77123;SDS011;66079;47.646;19.130;2023-05-29T15:54:43;7.45;;;4.80;;
77123;SDS011;66079;47.646;19.130;2023-05-29T15:57:46;7.88;;;5.10;;
77123;SDS011;66079;47.646;19.130;2023-05-29T16:00:49;8.80;;;4.93;;
77123;SDS011;66079;47.646;19.130;2023-05-29T16:03:52;6.70;;;5.03;;
77123;SDS011;66079;47.646;19.130;2023-05-29T16:06:55;5.77;;;4.93;;
77123;SDS011;66079;47.646;19.130;2023-05-29T16:09:57;6.00;;;4.90;;
77123;SDS011;66079;47.646;19.130;2023-05-29T16:13:00;12.85;;;5.38;;
77123;SDS011;66079;47.646;19.130;2023-05-29T16:16:02;6.68;;;4.88;;
77123;SDS011;66079;47.646;19.130;2023-05-29T16:19:05;9.25;;;5.03;;
77123;SDS011;66079;47.646;19.130;2023-05-29T16:22:08;6.90;;;5.23;;
77123;SDS011;66079;47.646;19.130;2023-05-29T16:25:10;8.73;;;4.88;;
77123;SDS011;66079;47.646;19.130;2023-05-29T16:28:13;7.68;;;5.18;;
77123;SDS011;66079;47.646;19.130;2023-05-29T16:31:16;6.60;;;4.50;;
77123;SDS011;66079;47.646;19.130;2023-05-29T16:34:18;8.18;;;5.10;;
77123;SDS011;66079;47.646;19.130;2023-05-29T16:37:21;7.37;;;5.27;;
77123;SDS011;66079;47.646;19.130;2023-05-29T16:40:24;7.60;;;5.30;;
77123;SDS011;66079;47.646;19.130;2023-05-29T16:43:27;7.32;;;4.88;;
77123;SDS011;66079;47.646;19.130;2023-05-29T16:46:29;7.18;;;5.07;;
77123;SDS011;66079;47.646;19.130;2023-05-29T16:49:32;5.97;;;5.32;;
77123;SDS011;66079;47.646;19.130;2023-05-29T16:52:35;9.80;;;5.30;;
77123;SDS011;66079;47.646;19.130;2023-05-29T16:55:38;7.95;;;4.90;;
77123;SDS011;66079;47.646;19.130;2023-05-29T16:58:40;8.95;;;5.13;;
77123;SDS011;66079;47.646;19.130;2023-05-29T17:01:43;7.85;;;5.43;;
77123;SDS011;66079;47.646;19.130;2023-05-29T17:04:45;9.05;;;5.43;;
77123;SDS011;66079;47.646;19.130;2023-05-29T17:07:48;6.37;;;4.93;;
77123;SDS011;66079;47.646;19.130;2023-05-29T17:10:51;8.40;;;4.68;;
77123;SDS011;66079;47.646;19.130;2023-05-29T17:13:54;8.43;;;4.68;;
77123;SDS011;66079;47.646;19.130;2023-05-29T17:16:57;6.47;;;4.50;;
77123;SDS011;66079;47.646;19.130;2023-05-29T17:19:59;7.45;;;5.07;;
77123;SDS011;66079;47.646;19.130;2023-05-29T17:23:02;8.00;;;4.93;;
77123;SDS011;66079;47.646;19.130;2023-05-29T17:26:05;6.82;;;4.85;;
77123;SDS011;66079;47.646;19.130;2023-05-29T17:29:07;6.80;;;5.20;;
77123;SDS011;66079;47.646;19.130;2023-05-29T17:32:10;7.22;;;5.20;;
77123;SDS011;66079;47.646;19.130;2023-05-29T17:35:13;8.23;;;5.30;;
77123;SDS011;66079;47.646;19.130;2023-05-29T17:38:15;6.50;;;4.97;;
77123;SDS011;66079;47.646;19.130;2023-05-29T17:41:18;6.93;;;4.88;;
77123;SDS011;66079;47.646;19.130;2023-05-29T17:44:20;8.68;;;5.20;;
77123;SDS011;66079;47.646;19.130;2023-05-29T17:47:23;10.35;;;5.35;;
77123;SDS011;66079;47.646;19.130;2023-05-29T17:50:25;6.35;;;4.40;;
77123;SDS011;66079;47.646;19.130;2023-05-29T17:53:28;8.10;;;4.97;;
77123;SDS011;66079;47.646;19.130;2023-05-29T17:56:30;8.40;;;5.25;;
77123;SDS011;66079;47.646;19.130;2023-05-29T17:59:35;10.02;;;5.30;;
77123;SDS011;66079;47.646;19.130;2023-05-29T18:02:37;6.22;;;4.78;;
77123;SDS011;66079;47.646;19.130;2023-05-29T18:05:40;10.35;;;5.40;;
77123;SDS011;66079;47.646;19.130;2023-05-29T18:08:43;6.37;;;4.80;;
77123;SDS011;66079;47.646;19.130;2023-05-29T18:11:46;10.18;;;5.20;;
77123;SDS011;66079;47.646;19.130;2023-05-29T18:14:48;7.95;;;5.15;;
77123;SDS011;66079;47.646;19.130;2023-05-29T18:17:52;9.73;;;5.00;;
77123;SDS011;66079;47.646;19.130;2023-05-29T18:20:55;9.75;;;5.40;;
77123;SDS011;66079;47.646;19.130;2023-05-29T18:23:58;9.60;;;5.33;;
77123;SDS011;66079;47.646;19.130;2023-05-29T18:27:00;8.20;;;5.28;;
77123;SDS011;66079;47.646;19.130;2023-05-29T18:30:05;10.35;;;6.22;;
77123;SDS011;66079;47.646;19.130;2023-05-29T18:33:09;13.93;;;5.72;;